sensor_id;sensor_type;location;lat;lon;timestamp;P1;durP1;ratioP1;P2;durP2;ratioP2
53269;SDS011;39159;45.634;9.420;2023-05-10T00:02:23;17.65;;;12.18;;
53269;SDS011;39159;45.634;9.420;2023-05-10T00:04:49;17.77;;;12.27;;
53269;SDS011;39159;45.634;9.420;2023-05-10T00:07:15;17.50;;;11.68;;
53269;SDS011;39159;45.634;9.420;2023-05-10T00:09:42;19.90;;;12.25;;
53269;SDS011;39159;45.634;9.420;2023-05-10T00:12:08;19.02;;;11.98;;
53269;SDS011;39159;45.634;9.420;2023-05-10T00:14:33;16.63;;;11.57;;
53269;SDS011;39159;45.634;9.420;2023-05-10T00:16:59;16.73;;;10.98;;
53269;SDS011;39159;45.634;9.420;2023-05-10T00:19:25;16.73;;;11.88;;
53269;SDS011;39159;45.634;9.420;2023-05-10T00:21:50;18.02;;;12.10;;
53269;SDS011;39159;45.634;9.420;2023-05-10T00:24:16;17.63;;;12.10;;
53269;SDS011;39159;45.634;9.420;2023-05-10T00:26:41;18.48;;;11.77;;
53269;SDS011;39159;45.634;9.420;2023-05-10T00:29:07;15.32;;;10.48;;
53269;SDS011;39159;45.634;9.420;2023-05-10T00:31:33;16.27;;;10.65;;
53269;SDS011;39159;45.634;9.420;2023-05-10T00:33:58;16.83;;;10.25;;
53269;SDS011;39159;45.634;9.420;2023-05-10T00:36:24;17.05;;;10.38;;
53269;SDS011;39159;45.634;9.420;2023-05-10T00:38:49;16.20;;;11.23;;
53269;SDS011;39159;45.634;9.420;2023-05-10T00:41:15;14.55;;;9.90;;
53269;SDS011;39159;45.634;9.420;2023-05-10T00:43:40;15.07;;;9.90;;
53269;SDS011;39159;45.634;9.420;2023-05-10T00:46:06;14.68;;;10.18;;
53269;SDS011;39159;45.634;9.420;2023-05-10T00:48:32;13.05;;;8.82;;
53269;SDS011;39159;45.634;9.420;2023-05-10T00:50:58;13.35;;;9.07;;
53269;SDS011;39159;45.634;9.420;2023-05-10T00:53:24;12.98;;;8.73;;
53269;SDS011;39159;45.634;9.420;2023-05-10T00:55:50;11.13;;;8.50;;
53269;SDS011;39159;45.634;9.420;2023-05-10T00:58:16;12.35;;;8.02;;
53269;SDS011;39159;45.634;9.420;2023-05-10T01:00:42;13.30;;;8.30;;
53269;SDS011;39159;45.634;9.420;2023-05-10T01:03:11;14.05;;;9.35;;
53269;SDS011;39159;45.634;9.420;2023-05-10T01:05:37;12.30;;;8.15;;
53269;SDS011;39159;45.634;9.420;2023-05-10T01:08:03;14.23;;;8.75;;
53269;SDS011;39159;45.634;9.420;2023-05-10T01:10:28;13.57;;;8.88;;
53269;SDS011;39159;45.634;9.420;2023-05-10T01:12:54;12.90;;;8.13;;
53269;SDS011;39159;45.634;9.420;2023-05-10T01:15:20;10.77;;;7.57;;
53269;SDS011;39159;45.634;9.420;2023-05-10T01:17:46;12.77;;;8.73;;
53269;SDS011;39159;45.634;9.420;2023-05-10T01:20:13;10.93;;;8.20;;
53269;SDS011;39159;45.634;9.420;2023-05-10T01:23:01;10.70;;;7.82;;
53269;SDS011;39159;45.634;9.420;2023-05-10T01:31:21;12.00;;;7.82;;
53269;SDS011;39159;45.634;9.420;2023-05-10T01:33:59;10.30;;;7.20;;
53269;SDS011;39159;45.634;9.420;2023-05-10T01:36:32;10.75;;;7.38;;
53269;SDS011;39159;45.634;9.420;2023-05-10T01:41:56;13.68;;;7.72;;
53269;SDS011;39159;45.634;9.420;2023-05-10T01:44:37;11.50;;;8.23;;
53269;SDS011;39159;45.634;9.420;2023-05-10T01:47:09;11.80;;;7.68;;
53269;SDS011;39159;45.634;9.420;2023-05-10T01:49:50;10.32;;;7.45;;
53269;SDS011;39159;45.634;9.420;2023-05-10T01:52:19;9.50;;;6.50;;
53269;SDS011;39159;45.634;9.420;2023-05-10T01:57:21;8.40;;;5.88;;
53269;SDS011;39159;45.634;9.420;2023-05-10T01:59:50;10.05;;;6.22;;
53269;SDS011;39159;45.634;9.420;2023-05-10T02:02:18;8.45;;;5.82;;
53269;SDS011;39159;45.634;9.420;2023-05-10T02:04:46;8.45;;;5.97;;
53269;SDS011;39159;45.634;9.420;2023-05-10T02:07:14;8.30;;;6.07;;
53269;SDS011;39159;45.634;9.420;2023-05-10T02:09:41;8.05;;;5.80;;
53269;SDS011;39159;45.634;9.420;2023-05-10T02:12:12;8.33;;;5.77;;
53269;SDS011;39159;45.634;9.420;2023-05-10T02:14:38;9.77;;;6.60;;
53269;SDS011;39159;45.634;9.420;2023-05-10T02:17:06;9.88;;;6.80;;
53269;SDS011;39159;45.634;9.420;2023-05-10T02:19:33;10.70;;;7.05;;
53269;SDS011;39159;45.634;9.420;2023-05-10T02:22:01;16.05;;;7.20;;
53269;SDS011;39159;45.634;9.420;2023-05-10T02:24:28;11.77;;;7.22;;
53269;SDS011;39159;45.634;9.420;2023-05-10T02:26:55;8.98;;;6.82;;
53269;SDS011;39159;45.634;9.420;2023-05-10T02:29:22;8.90;;;6.38;;
53269;SDS011;39159;45.634;9.420;2023-05-10T02:31:51;14.10;;;6.85;;
53269;SDS011;39159;45.634;9.420;2023-05-10T02:34:19;8.80;;;6.78;;
53269;SDS011;39159;45.634;9.420;2023-05-10T02:36:47;10.05;;;6.88;;
53269;SDS011;39159;45.634;9.420;2023-05-10T02:39:13;9.00;;;6.38;;
53269;SDS011;39159;45.634;9.420;2023-05-10T02:41:40;9.18;;;5.82;;
53269;SDS011;39159;45.634;9.420;2023-05-10T02:44:07;8.23;;;6.32;;
53269;SDS011;39159;45.634;9.420;2023-05-10T02:46:34;7.88;;;6.20;;
53269;SDS011;39159;45.634;9.420;2023-05-10T02:49:01;9.05;;;6.43;;
53269;SDS011;39159;45.634;9.420;2023-05-10T02:51:29;9.55;;;6.78;;
53269;SDS011;39159;45.634;9.420;2023-05-10T02:54:06;8.02;;;5.95;;
53269;SDS011;39159;45.634;9.420;2023-05-10T02:56:35;8.38;;;6.30;;
53269;SDS011;39159;45.634;9.420;2023-05-10T02:59:05;8.65;;;6.50;;
53269;SDS011;39159;45.634;9.420;2023-05-10T03:01:31;8.77;;;6.50;;
53269;SDS011;39159;45.634;9.420;2023-05-10T03:03:57;8.95;;;6.00;;
53269;SDS011;39159;45.634;9.420;2023-05-10T03:06:22;8.13;;;5.75;;
53269;SDS011;39159;45.634;9.420;2023-05-10T03:08:48;7.65;;;5.32;;
53269;SDS011;39159;45.634;9.420;2023-05-10T03:16:54;6.55;;;5.18;;
53269;SDS011;39159;45.634;9.420;2023-05-10T03:22:23;6.63;;;4.85;;
53269;SDS011;39159;45.634;9.420;2023-05-10T03:24:54;7.75;;;5.18;;
53269;SDS011;39159;45.634;9.420;2023-05-10T03:27:22;6.57;;;4.70;;
53269;SDS011;39159;45.634;9.420;2023-05-10T03:29:50;6.00;;;4.72;;
53269;SDS011;39159;45.634;9.420;2023-05-10T03:32:16;6.45;;;4.47;;
53269;SDS011;39159;45.634;9.420;2023-05-10T03:34:42;6.22;;;4.35;;
53269;SDS011;39159;45.634;9.420;2023-05-10T03:37:10;8.10;;;4.78;;
53269;SDS011;39159;45.634;9.420;2023-05-10T03:39:36;5.78;;;4.20;;
53269;SDS011;39159;45.634;9.420;2023-05-10T03:42:01;5.85;;;4.75;;
53269;SDS011;39159;45.634;9.420;2023-05-10T03:44:27;5.25;;;4.40;;
53269;SDS011;39159;45.634;9.420;2023-05-10T03:46:53;7.63;;;4.60;;
53269;SDS011;39159;45.634;9.420;2023-05-10T03:49:18;8.75;;;5.25;;
53269;SDS011;39159;45.634;9.420;2023-05-10T03:51:43;5.93;;;4.80;;
53269;SDS011;39159;45.634;9.420;2023-05-10T03:54:09;7.10;;;4.40;;
53269;SDS011;39159;45.634;9.420;2023-05-10T03:56:34;6.57;;;5.03;;
53269;SDS011;39159;45.634;9.420;2023-05-10T03:59:00;8.63;;;4.85;;
53269;SDS011;39159;45.634;9.420;2023-05-10T04:01:25;6.30;;;4.53;;
53269;SDS011;39159;45.634;9.420;2023-05-10T04:03:51;7.60;;;4.50;;
53269;SDS011;39159;45.634;9.420;2023-05-10T04:06:16;7.32;;;5.18;;
53269;SDS011;39159;45.634;9.420;2023-05-10T04:08:42;8.48;;;5.22;;
53269;SDS011;39159;45.634;9.420;2023-05-10T04:11:08;7.50;;;4.90;;
53269;SDS011;39159;45.634;9.420;2023-05-10T04:13:35;7.38;;;5.10;;
53269;SDS011;39159;45.634;9.420;2023-05-10T04:16:00;8.43;;;5.78;;
53269;SDS011;39159;45.634;9.420;2023-05-10T04:18:26;7.38;;;5.18;;
53269;SDS011;39159;45.634;9.420;2023-05-10T04:20:52;8.35;;;5.55;;
53269;SDS011;39159;45.634;9.420;2023-05-10T04:23:17;7.55;;;5.18;;
53269;SDS011;39159;45.634;9.420;2023-05-10T04:25:43;6.50;;;5.00;;
53269;SDS011;39159;45.634;9.420;2023-05-10T04:28:08;6.25;;;4.65;;
53269;SDS011;39159;45.634;9.420;2023-05-10T04:30:34;6.53;;;4.60;;
53269;SDS011;39159;45.634;9.420;2023-05-10T04:33:00;5.57;;;4.40;;
53269;SDS011;39159;45.634;9.420;2023-05-10T04:35:26;5.68;;;4.68;;
53269;SDS011;39159;45.634;9.420;2023-05-10T04:37:53;7.55;;;4.63;;
53269;SDS011;39159;45.634;9.420;2023-05-10T04:40:18;6.78;;;4.55;;
53269;SDS011;39159;45.634;9.420;2023-05-10T04:42:44;6.40;;;4.55;;
53269;SDS011;39159;45.634;9.420;2023-05-10T04:45:10;5.35;;;4.65;;
53269;SDS011;39159;45.634;9.420;2023-05-10T04:47:36;5.57;;;4.32;;
53269;SDS011;39159;45.634;9.420;2023-05-10T04:50:02;7.13;;;4.78;;
53269;SDS011;39159;45.634;9.420;2023-05-10T04:52:28;7.03;;;5.03;;
53269;SDS011;39159;45.634;9.420;2023-05-10T04:54:54;7.75;;;4.57;;
53269;SDS011;39159;45.634;9.420;2023-05-10T04:57:19;6.60;;;5.07;;
53269;SDS011;39159;45.634;9.420;2023-05-10T04:59:45;6.68;;;4.95;;
53269;SDS011;39159;45.634;9.420;2023-05-10T05:02:10;5.40;;;4.20;;
53269;SDS011;39159;45.634;9.420;2023-05-10T05:04:36;6.10;;;4.68;;
53269;SDS011;39159;45.634;9.420;2023-05-10T05:07:02;5.07;;;4.20;;
53269;SDS011;39159;45.634;9.420;2023-05-10T05:09:27;7.05;;;4.00;;
53269;SDS011;39159;45.634;9.420;2023-05-10T05:11:52;5.82;;;4.30;;
53269;SDS011;39159;45.634;9.420;2023-05-10T05:14:18;5.93;;;4.53;;
53269;SDS011;39159;45.634;9.420;2023-05-10T05:16:45;5.50;;;4.25;;
53269;SDS011;39159;45.634;9.420;2023-05-10T05:19:11;6.35;;;4.30;;
53269;SDS011;39159;45.634;9.420;2023-05-10T05:21:37;5.55;;;3.95;;
53269;SDS011;39159;45.634;9.420;2023-05-10T05:24:02;5.53;;;4.13;;
53269;SDS011;39159;45.634;9.420;2023-05-10T05:26:28;5.93;;;4.30;;
53269;SDS011;39159;45.634;9.420;2023-05-10T05:28:54;6.78;;;3.92;;
53269;SDS011;39159;45.634;9.420;2023-05-10T05:31:19;4.97;;;4.03;;
53269;SDS011;39159;45.634;9.420;2023-05-10T05:33:45;4.75;;;4.07;;
53269;SDS011;39159;45.634;9.420;2023-05-10T05:36:11;5.65;;;4.47;;
53269;SDS011;39159;45.634;9.420;2023-05-10T05:38:36;6.28;;;4.38;;
53269;SDS011;39159;45.634;9.420;2023-05-10T05:41:02;7.55;;;4.75;;
53269;SDS011;39159;45.634;9.420;2023-05-10T05:43:28;7.63;;;5.30;;
53269;SDS011;39159;45.634;9.420;2023-05-10T05:45:53;9.27;;;5.20;;
53269;SDS011;39159;45.634;9.420;2023-05-10T05:48:19;7.88;;;4.90;;
53269;SDS011;39159;45.634;9.420;2023-05-10T05:50:45;7.25;;;5.10;;
53269;SDS011;39159;45.634;9.420;2023-05-10T05:53:11;7.05;;;5.00;;
53269;SDS011;39159;45.634;9.420;2023-05-10T05:55:36;6.03;;;4.32;;
53269;SDS011;39159;45.634;9.420;2023-05-10T05:58:02;10.75;;;4.95;;
53269;SDS011;39159;45.634;9.420;2023-05-10T06:00:28;5.50;;;4.38;;
53269;SDS011;39159;45.634;9.420;2023-05-10T06:02:54;6.57;;;4.18;;
53269;SDS011;39159;45.634;9.420;2023-05-10T06:05:19;5.63;;;3.90;;
53269;SDS011;39159;45.634;9.420;2023-05-10T06:07:45;6.15;;;4.20;;
53269;SDS011;39159;45.634;9.420;2023-05-10T06:10:11;6.45;;;4.22;;
53269;SDS011;39159;45.634;9.420;2023-05-10T06:12:36;5.30;;;4.20;;
53269;SDS011;39159;45.634;9.420;2023-05-10T06:15:02;6.35;;;4.20;;
53269;SDS011;39159;45.634;9.420;2023-05-10T06:17:28;7.65;;;4.93;;
53269;SDS011;39159;45.634;9.420;2023-05-10T06:19:54;9.48;;;4.97;;
53269;SDS011;39159;45.634;9.420;2023-05-10T06:22:20;8.30;;;4.93;;
53269;SDS011;39159;45.634;9.420;2023-05-10T06:24:47;6.93;;;5.00;;
53269;SDS011;39159;45.634;9.420;2023-05-10T06:27:13;11.45;;;5.32;;
53269;SDS011;39159;45.634;9.420;2023-05-10T06:29:38;8.38;;;5.65;;
53269;SDS011;39159;45.634;9.420;2023-05-10T06:32:04;7.80;;;5.25;;
53269;SDS011;39159;45.634;9.420;2023-05-10T06:34:29;7.45;;;5.13;;
53269;SDS011;39159;45.634;9.420;2023-05-10T06:36:55;8.52;;;5.45;;
53269;SDS011;39159;45.634;9.420;2023-05-10T06:39:20;9.32;;;5.88;;
53269;SDS011;39159;45.634;9.420;2023-05-10T06:41:46;11.13;;;6.28;;
53269;SDS011;39159;45.634;9.420;2023-05-10T06:44:11;8.07;;;5.82;;
53269;SDS011;39159;45.634;9.420;2023-05-10T06:46:38;8.48;;;5.68;;
53269;SDS011;39159;45.634;9.420;2023-05-10T06:49:03;7.25;;;5.38;;
53269;SDS011;39159;45.634;9.420;2023-05-10T06:51:29;7.60;;;5.75;;
53269;SDS011;39159;45.634;9.420;2023-05-10T06:53:55;9.25;;;5.70;;
53269;SDS011;39159;45.634;9.420;2023-05-10T06:56:20;12.93;;;6.00;;
53269;SDS011;39159;45.634;9.420;2023-05-10T06:58:47;13.55;;;6.55;;
53269;SDS011;39159;45.634;9.420;2023-05-10T07:01:12;9.73;;;6.47;;
53269;SDS011;39159;45.634;9.420;2023-05-10T07:03:38;8.43;;;5.88;;
53269;SDS011;39159;45.634;9.420;2023-05-10T07:06:04;9.43;;;6.50;;
53269;SDS011;39159;45.634;9.420;2023-05-10T07:08:31;10.38;;;6.90;;
53269;SDS011;39159;45.634;9.420;2023-05-10T07:11:00;10.93;;;7.10;;
53269;SDS011;39159;45.634;9.420;2023-05-10T07:13:28;8.07;;;6.25;;
53269;SDS011;39159;45.634;9.420;2023-05-10T07:15:54;9.57;;;6.68;;
53269;SDS011;39159;45.634;9.420;2023-05-10T07:18:19;10.68;;;6.97;;
53269;SDS011;39159;45.634;9.420;2023-05-10T07:20:45;11.52;;;6.60;;
53269;SDS011;39159;45.634;9.420;2023-05-10T07:23:10;9.05;;;6.72;;
53269;SDS011;39159;45.634;9.420;2023-05-10T07:25:36;10.15;;;7.32;;
53269;SDS011;39159;45.634;9.420;2023-05-10T07:28:01;8.63;;;6.93;;
53269;SDS011;39159;45.634;9.420;2023-05-10T07:30:26;9.23;;;6.57;;
53269;SDS011;39159;45.634;9.420;2023-05-10T07:32:52;19.58;;;8.00;;
53269;SDS011;39159;45.634;9.420;2023-05-10T07:35:17;10.00;;;6.97;;
53269;SDS011;39159;45.634;9.420;2023-05-10T07:37:43;10.65;;;7.03;;
53269;SDS011;39159;45.634;9.420;2023-05-10T07:40:08;9.57;;;6.93;;
53269;SDS011;39159;45.634;9.420;2023-05-10T07:42:34;9.70;;;6.65;;
53269;SDS011;39159;45.634;9.420;2023-05-10T07:44:59;10.43;;;6.95;;
53269;SDS011;39159;45.634;9.420;2023-05-10T07:47:25;10.40;;;7.03;;
53269;SDS011;39159;45.634;9.420;2023-05-10T07:49:51;11.77;;;7.38;;
53269;SDS011;39159;45.634;9.420;2023-05-10T07:52:16;9.70;;;7.00;;
53269;SDS011;39159;45.634;9.420;2023-05-10T07:54:42;9.73;;;6.20;;
53269;SDS011;39159;45.634;9.420;2023-05-10T07:57:07;12.18;;;6.72;;
53269;SDS011;39159;45.634;9.420;2023-05-10T07:59:33;8.40;;;6.18;;
53269;SDS011;39159;45.634;9.420;2023-05-10T08:01:58;7.50;;;5.40;;
53269;SDS011;39159;45.634;9.420;2023-05-10T08:04:24;8.65;;;5.35;;
53269;SDS011;39159;45.634;9.420;2023-05-10T08:06:49;8.82;;;6.25;;
53269;SDS011;39159;45.634;9.420;2023-05-10T08:09:15;7.75;;;5.95;;
53269;SDS011;39159;45.634;9.420;2023-05-10T08:11:41;6.90;;;4.93;;
53269;SDS011;39159;45.634;9.420;2023-05-10T08:14:06;7.35;;;5.40;;
53269;SDS011;39159;45.634;9.420;2023-05-10T08:16:32;7.70;;;5.55;;
53269;SDS011;39159;45.634;9.420;2023-05-10T08:18:57;8.10;;;5.10;;
53269;SDS011;39159;45.634;9.420;2023-05-10T08:21:23;7.63;;;5.60;;
53269;SDS011;39159;45.634;9.420;2023-05-10T08:23:48;7.53;;;5.82;;
53269;SDS011;39159;45.634;9.420;2023-05-10T08:26:14;8.00;;;6.63;;
53269;SDS011;39159;45.634;9.420;2023-05-10T08:28:40;8.18;;;6.38;;
53269;SDS011;39159;45.634;9.420;2023-05-10T08:31:05;8.55;;;6.45;;
53269;SDS011;39159;45.634;9.420;2023-05-10T08:33:31;7.47;;;5.40;;
53269;SDS011;39159;45.634;9.420;2023-05-10T08:35:56;9.80;;;6.65;;
53269;SDS011;39159;45.634;9.420;2023-05-10T08:38:22;7.05;;;5.45;;
53269;SDS011;39159;45.634;9.420;2023-05-10T08:40:47;10.30;;;5.82;;
53269;SDS011;39159;45.634;9.420;2023-05-10T08:43:15;8.43;;;5.93;;
53269;SDS011;39159;45.634;9.420;2023-05-10T08:45:42;7.38;;;5.80;;
53269;SDS011;39159;45.634;9.420;2023-05-10T08:48:12;8.00;;;5.97;;
53269;SDS011;39159;45.634;9.420;2023-05-10T08:50:38;7.78;;;5.53;;
53269;SDS011;39159;45.634;9.420;2023-05-10T08:53:06;5.85;;;4.65;;
53269;SDS011;39159;45.634;9.420;2023-05-10T08:55:34;6.95;;;5.10;;
53269;SDS011;39159;45.634;9.420;2023-05-10T08:58:02;7.57;;;5.60;;
53269;SDS011;39159;45.634;9.420;2023-05-10T09:00:28;7.82;;;5.63;;
53269;SDS011;39159;45.634;9.420;2023-05-10T09:02:54;9.15;;;6.20;;
53269;SDS011;39159;45.634;9.420;2023-05-10T09:05:21;8.00;;;6.00;;
53269;SDS011;39159;45.634;9.420;2023-05-10T09:07:47;7.35;;;5.88;;
53269;SDS011;39159;45.634;9.420;2023-05-10T09:10:13;9.35;;;5.72;;
53269;SDS011;39159;45.634;9.420;2023-05-10T09:12:40;7.93;;;5.90;;
53269;SDS011;39159;45.634;9.420;2023-05-10T09:15:06;9.93;;;6.30;;
53269;SDS011;39159;45.634;9.420;2023-05-10T09:17:33;8.10;;;5.80;;
53269;SDS011;39159;45.634;9.420;2023-05-10T09:20:02;7.65;;;5.70;;
53269;SDS011;39159;45.634;9.420;2023-05-10T09:22:32;8.13;;;5.80;;
53269;SDS011;39159;45.634;9.420;2023-05-10T09:27:30;6.70;;;5.18;;
53269;SDS011;39159;45.634;9.420;2023-05-10T09:29:55;6.75;;;5.32;;
53269;SDS011;39159;45.634;9.420;2023-05-10T09:32:21;8.25;;;6.65;;
53269;SDS011;39159;45.634;9.420;2023-05-10T09:34:46;7.15;;;5.78;;
53269;SDS011;39159;45.634;9.420;2023-05-10T09:37:15;8.63;;;5.78;;
53269;SDS011;39159;45.634;9.420;2023-05-10T09:39:40;6.15;;;4.68;;
53269;SDS011;39159;45.634;9.420;2023-05-10T09:42:07;6.32;;;4.95;;
53269;SDS011;39159;45.634;9.420;2023-05-10T09:44:34;6.65;;;5.20;;
53269;SDS011;39159;45.634;9.420;2023-05-10T09:47:00;7.57;;;5.85;;
53269;SDS011;39159;45.634;9.420;2023-05-10T09:49:27;6.63;;;5.05;;
53269;SDS011;39159;45.634;9.420;2023-05-10T09:52:03;6.75;;;5.40;;
53269;SDS011;39159;45.634;9.420;2023-05-10T09:54:30;6.28;;;5.05;;
53269;SDS011;39159;45.634;9.420;2023-05-10T09:56:56;6.15;;;4.70;;
53269;SDS011;39159;45.634;9.420;2023-05-10T09:59:21;5.45;;;4.90;;
53269;SDS011;39159;45.634;9.420;2023-05-10T10:01:51;6.10;;;5.20;;
53269;SDS011;39159;45.634;9.420;2023-05-10T10:04:17;7.40;;;5.70;;
53269;SDS011;39159;45.634;9.420;2023-05-10T10:06:44;5.40;;;4.80;;
53269;SDS011;39159;45.634;9.420;2023-05-10T10:09:10;9.50;;;7.15;;
53269;SDS011;39159;45.634;9.420;2023-05-10T10:11:36;7.70;;;6.38;;
53269;SDS011;39159;45.634;9.420;2023-05-10T10:14:02;6.95;;;6.25;;
53269;SDS011;39159;45.634;9.420;2023-05-10T10:16:29;7.20;;;5.22;;
53269;SDS011;39159;45.634;9.420;2023-05-10T10:18:55;7.05;;;5.80;;
53269;SDS011;39159;45.634;9.420;2023-05-10T10:21:21;7.03;;;5.85;;
53269;SDS011;39159;45.634;9.420;2023-05-10T10:23:48;7.68;;;6.18;;
53269;SDS011;39159;45.634;9.420;2023-05-10T10:26:13;6.57;;;5.60;;
53269;SDS011;39159;45.634;9.420;2023-05-10T10:31:17;6.75;;;5.47;;
53269;SDS011;39159;45.634;9.420;2023-05-10T10:34:08;7.45;;;5.50;;
53269;SDS011;39159;45.634;9.420;2023-05-10T10:36:43;6.40;;;5.80;;
53269;SDS011;39159;45.634;9.420;2023-05-10T10:39:11;6.55;;;5.35;;
53269;SDS011;39159;45.634;9.420;2023-05-10T10:41:41;6.55;;;5.20;;
53269;SDS011;39159;45.634;9.420;2023-05-10T10:49:49;6.85;;;5.60;;
53269;SDS011;39159;45.634;9.420;2023-05-10T10:52:34;7.40;;;5.40;;
53269;SDS011;39159;45.634;9.420;2023-05-10T10:57:32;6.75;;;5.20;;
53269;SDS011;39159;45.634;9.420;2023-05-10T11:00:23;7.50;;;5.20;;
53269;SDS011;39159;45.634;9.420;2023-05-10T11:02:52;6.68;;;5.50;;
53269;SDS011;39159;45.634;9.420;2023-05-10T11:08:06;5.70;;;5.05;;
53269;SDS011;39159;45.634;9.420;2023-05-10T11:10:40;5.97;;;5.28;;
53269;SDS011;39159;45.634;9.420;2023-05-10T11:13:16;7.63;;;5.55;;
53269;SDS011;39159;45.634;9.420;2023-05-10T11:15:53;9.05;;;5.60;;
53269;SDS011;39159;45.634;9.420;2023-05-10T11:18:19;6.45;;;5.30;;
53269;SDS011;39159;45.634;9.420;2023-05-10T11:20:51;5.90;;;5.30;;
53269;SDS011;39159;45.634;9.420;2023-05-10T11:23:18;6.30;;;4.78;;
53269;SDS011;39159;45.634;9.420;2023-05-10T11:25:45;6.72;;;5.70;;
53269;SDS011;39159;45.634;9.420;2023-05-10T11:28:11;6.40;;;5.32;;
53269;SDS011;39159;45.634;9.420;2023-05-10T11:30:41;6.82;;;6.03;;
53269;SDS011;39159;45.634;9.420;2023-05-10T11:33:08;8.45;;;6.28;;
53269;SDS011;39159;45.634;9.420;2023-05-10T11:35:38;8.13;;;6.22;;
53269;SDS011;39159;45.634;9.420;2023-05-10T11:38:05;6.55;;;5.38;;
53269;SDS011;39159;45.634;9.420;2023-05-10T11:40:35;6.95;;;6.20;;
53269;SDS011;39159;45.634;9.420;2023-05-10T11:43:02;7.38;;;6.30;;
53269;SDS011;39159;45.634;9.420;2023-05-10T11:45:28;8.10;;;6.72;;
53269;SDS011;39159;45.634;9.420;2023-05-10T11:47:56;13.93;;;8.65;;
53269;SDS011;39159;45.634;9.420;2023-05-10T11:50:22;9.55;;;6.95;;
53269;SDS011;39159;45.634;9.420;2023-05-10T11:52:51;8.15;;;7.13;;
53269;SDS011;39159;45.634;9.420;2023-05-10T11:55:18;8.02;;;6.60;;
53269;SDS011;39159;45.634;9.420;2023-05-10T11:57:43;9.32;;;7.28;;
53269;SDS011;39159;45.634;9.420;2023-05-10T12:00:11;7.90;;;6.60;;
53269;SDS011;39159;45.634;9.420;2023-05-10T12:02:37;8.98;;;7.65;;
53269;SDS011;39159;45.634;9.420;2023-05-10T12:05:03;9.93;;;6.40;;
53269;SDS011;39159;45.634;9.420;2023-05-10T12:07:30;6.72;;;6.03;;
53269;SDS011;39159;45.634;9.420;2023-05-10T12:10:09;10.25;;;6.32;;
53269;SDS011;39159;45.634;9.420;2023-05-10T12:15:12;8.70;;;7.05;;
53269;SDS011;39159;45.634;9.420;2023-05-10T12:17:49;8.20;;;6.85;;
53269;SDS011;39159;45.634;9.420;2023-05-10T12:20:22;6.78;;;6.07;;
53269;SDS011;39159;45.634;9.420;2023-05-10T12:22:53;10.00;;;6.75;;
53269;SDS011;39159;45.634;9.420;2023-05-10T12:25:24;10.25;;;7.00;;
53269;SDS011;39159;45.634;9.420;2023-05-10T12:27:55;10.05;;;6.70;;
53269;SDS011;39159;45.634;9.420;2023-05-10T12:30:25;8.88;;;6.07;;
53269;SDS011;39159;45.634;9.420;2023-05-10T12:32:59;9.43;;;7.82;;
53269;SDS011;39159;45.634;9.420;2023-05-10T12:35:26;9.07;;;7.45;;
53269;SDS011;39159;45.634;9.420;2023-05-10T12:37:54;9.77;;;7.10;;
53269;SDS011;39159;45.634;9.420;2023-05-10T12:40:20;10.40;;;7.22;;
53269;SDS011;39159;45.634;9.420;2023-05-10T12:42:45;8.52;;;7.10;;
53269;SDS011;39159;45.634;9.420;2023-05-10T12:45:11;8.50;;;6.90;;
53269;SDS011;39159;45.634;9.420;2023-05-10T12:47:37;6.95;;;6.25;;
53269;SDS011;39159;45.634;9.420;2023-05-10T12:50:03;9.15;;;6.63;;
53269;SDS011;39159;45.634;9.420;2023-05-10T12:52:30;9.18;;;7.10;;
53269;SDS011;39159;45.634;9.420;2023-05-10T12:54:57;8.32;;;6.90;;
53269;SDS011;39159;45.634;9.420;2023-05-10T12:57:23;8.90;;;7.60;;
53269;SDS011;39159;45.634;9.420;2023-05-10T12:59:49;7.63;;;6.80;;
53269;SDS011;39159;45.634;9.420;2023-05-10T13:02:15;8.88;;;7.40;;
53269;SDS011;39159;45.634;9.420;2023-05-10T13:04:43;8.80;;;6.43;;
53269;SDS011;39159;45.634;9.420;2023-05-10T13:07:09;9.05;;;7.50;;
53269;SDS011;39159;45.634;9.420;2023-05-10T13:09:35;9.48;;;7.88;;
53269;SDS011;39159;45.634;9.420;2023-05-10T13:12:00;9.50;;;7.63;;
53269;SDS011;39159;45.634;9.420;2023-05-10T13:14:27;9.00;;;7.57;;
53269;SDS011;39159;45.634;9.420;2023-05-10T13:16:52;8.60;;;7.05;;
53269;SDS011;39159;45.634;9.420;2023-05-10T13:19:19;9.88;;;7.57;;
53269;SDS011;39159;45.634;9.420;2023-05-10T13:21:44;7.50;;;6.75;;
53269;SDS011;39159;45.634;9.420;2023-05-10T13:24:10;9.45;;;7.28;;
53269;SDS011;39159;45.634;9.420;2023-05-10T13:26:38;10.18;;;7.35;;
53269;SDS011;39159;45.634;9.420;2023-05-10T13:29:05;10.77;;;8.05;;
53269;SDS011;39159;45.634;9.420;2023-05-10T13:31:31;9.35;;;8.27;;
53269;SDS011;39159;45.634;9.420;2023-05-10T13:33:57;10.35;;;8.13;;
53269;SDS011;39159;45.634;9.420;2023-05-10T13:36:22;9.75;;;8.48;;
53269;SDS011;39159;45.634;9.420;2023-05-10T13:38:48;11.52;;;8.07;;
53269;SDS011;39159;45.634;9.420;2023-05-10T13:41:13;10.48;;;8.45;;
53269;SDS011;39159;45.634;9.420;2023-05-10T13:43:39;9.05;;;7.90;;
53269;SDS011;39159;45.634;9.420;2023-05-10T13:46:05;12.10;;;8.90;;
53269;SDS011;39159;45.634;9.420;2023-05-10T13:48:30;11.02;;;9.32;;
53269;SDS011;39159;45.634;9.420;2023-05-10T13:50:56;15.00;;;9.77;;
53269;SDS011;39159;45.634;9.420;2023-05-10T13:53:22;15.73;;;10.07;;
53269;SDS011;39159;45.634;9.420;2023-05-10T13:55:47;11.90;;;10.35;;
53269;SDS011;39159;45.634;9.420;2023-05-10T13:58:14;11.77;;;9.50;;
53269;SDS011;39159;45.634;9.420;2023-05-10T14:00:39;17.33;;;11.23;;
53269;SDS011;39159;45.634;9.420;2023-05-10T14:03:05;14.05;;;9.82;;
53269;SDS011;39159;45.634;9.420;2023-05-10T14:05:31;12.13;;;9.57;;
53269;SDS011;39159;45.634;9.420;2023-05-10T14:07:57;12.52;;;10.57;;
53269;SDS011;39159;45.634;9.420;2023-05-10T14:10:23;16.20;;;11.15;;
53269;SDS011;39159;45.634;9.420;2023-05-10T14:12:49;11.48;;;10.23;;
53269;SDS011;39159;45.634;9.420;2023-05-10T14:15:15;12.75;;;10.63;;
53269;SDS011;39159;45.634;9.420;2023-05-10T14:17:41;14.48;;;9.55;;
53269;SDS011;39159;45.634;9.420;2023-05-10T14:20:06;12.40;;;10.35;;
53269;SDS011;39159;45.634;9.420;2023-05-10T14:22:33;12.85;;;10.48;;
53269;SDS011;39159;45.634;9.420;2023-05-10T14:24:59;12.55;;;10.25;;
53269;SDS011;39159;45.634;9.420;2023-05-10T14:27:25;14.45;;;10.40;;
53269;SDS011;39159;45.634;9.420;2023-05-10T14:29:51;11.93;;;9.77;;
53269;SDS011;39159;45.634;9.420;2023-05-10T14:32:16;12.48;;;10.35;;
53269;SDS011;39159;45.634;9.420;2023-05-10T14:34:42;10.93;;;9.43;;
53269;SDS011;39159;45.634;9.420;2023-05-10T14:37:09;12.85;;;9.43;;
53269;SDS011;39159;45.634;9.420;2023-05-10T14:39:36;11.23;;;10.02;;
53269;SDS011;39159;45.634;9.420;2023-05-10T14:42:01;14.60;;;10.85;;
53269;SDS011;39159;45.634;9.420;2023-05-10T14:44:27;10.60;;;9.25;;
53269;SDS011;39159;45.634;9.420;2023-05-10T14:46:53;11.65;;;9.70;;
53269;SDS011;39159;45.634;9.420;2023-05-10T14:49:19;11.82;;;10.18;;
53269;SDS011;39159;45.634;9.420;2023-05-10T14:51:47;14.30;;;10.23;;
53269;SDS011;39159;45.634;9.420;2023-05-10T14:54:13;12.00;;;9.68;;
53269;SDS011;39159;45.634;9.420;2023-05-10T14:56:38;11.73;;;10.30;;
53269;SDS011;39159;45.634;9.420;2023-05-10T14:59:06;12.27;;;9.55;;
53269;SDS011;39159;45.634;9.420;2023-05-10T15:01:32;11.63;;;9.85;;
53269;SDS011;39159;45.634;9.420;2023-05-10T15:03:58;13.75;;;10.00;;
53269;SDS011;39159;45.634;9.420;2023-05-10T15:06:29;11.82;;;10.35;;
53269;SDS011;39159;45.634;9.420;2023-05-10T15:08:55;14.73;;;10.30;;
53269;SDS011;39159;45.634;9.420;2023-05-10T15:11:21;14.23;;;10.52;;
53269;SDS011;39159;45.634;9.420;2023-05-10T15:13:46;13.02;;;10.98;;
53269;SDS011;39159;45.634;9.420;2023-05-10T15:16:12;11.20;;;9.50;;
53269;SDS011;39159;45.634;9.420;2023-05-10T15:18:38;10.32;;;9.23;;
53269;SDS011;39159;45.634;9.420;2023-05-10T15:21:03;10.75;;;8.90;;